createdAt,value
2022-12-27T00:00:02.031Z,1011.2141728271952
2022-12-27T00:15:01.720Z,1011.3141113062566
2022-12-27T00:30:01.648Z,1011.455523004131
2022-12-27T00:45:01.449Z,1011.5851520635345
2022-12-27T01:00:09.544Z,1011.6104796007716
2022-12-27T01:15:01.904Z,1011.8425033408276
2022-12-27T01:30:01.568Z,1011.8574914655657
2022-12-27T01:45:02.213Z,1012.0322053562905
2022-12-27T02:00:01.842Z,1011.8943786983109
2022-12-27T02:15:02.517Z,1012.0269223482097
2022-12-27T02:30:02.235Z,1011.9670183480439
2022-12-27T02:45:01.874Z,1012.1014541692365
2022-12-27T03:00:01.542Z,1012.0626197192457
2022-12-27T03:15:02.215Z,1012.1267991347105
2022-12-27T03:30:01.891Z,1012.146337326776
2022-12-27T03:45:01.519Z,1012.3434642220528
2022-12-27T04:00:02.148Z,1012.3503150493359
2022-12-27T04:15:01.786Z,1012.384108752096
2022-12-27T04:30:01.440Z,1012.4905877547244
2022-12-27T04:45:02.070Z,1012.5681864289088
2022-12-27T05:00:01.664Z,1012.6364735104305
2022-12-27T05:15:02.361Z,1012.8769637191485
2022-12-27T05:30:02.186Z,1013.0496821504978
2022-12-27T05:45:01.852Z,1013.227846213556
2022-12-27T06:00:01.503Z,1013.2077825112547
2022-12-27T06:15:02.147Z,1013.5420555871257
2022-12-27T06:30:01.827Z,1013.6266586665504
2022-12-27T06:45:01.469Z,1013.7816012130398
2022-12-27T07:00:02.270Z,1013.8291156024576
2022-12-27T07:15:01.900Z,1014.0699378849702
2022-12-27T07:30:01.609Z,1014.2689564538672
2022-12-27T07:45:02.232Z,1014.5572144700712
2022-12-27T08:00:01.831Z,1014.7656338735254
2022-12-27T08:15:01.466Z,1014.8560904398707
2022-12-27T08:30:02.104Z,1014.8884371805833
2022-12-27T08:45:01.808Z,1014.9885849094908
2022-12-27T09:00:01.691Z,1015.1449406122719
2022-12-27T09:15:02.381Z,1015.248616944195
2022-12-27T09:30:02.016Z,1015.3972437760629
2022-12-27T09:45:01.653Z,1015.3757946862195
2022-12-27T10:00:02.275Z,1015.4700751130612
2022-12-27T10:15:01.881Z,1015.4790722530929
2022-12-27T10:30:01.536Z,1015.5087679975945
2022-12-27T10:45:02.178Z,1015.5324984065084
2022-12-27T11:00:01.791Z,1015.576862102939
2022-12-27T11:15:01.490Z,1015.7001112095302
2022-12-27T11:30:02.127Z,1015.8825201054253
2022-12-27T11:45:01.754Z,1015.9806627571697
2022-12-27T12:00:02.357Z,1015.874546014001
2022-12-27T12:15:01.994Z,1015.7982077207449
2022-12-27T12:30:01.657Z,1015.7243693241485
2022-12-27T12:45:02.310Z,1015.5901592231636
2022-12-27T13:00:01.942Z,1015.5059191439602
2022-12-27T13:15:01.636Z,1015.3346460753343
2022-12-27T13:30:06.801Z,1015.139845306743
2022-12-27T13:45:02.185Z,1014.975157386562
2022-12-27T14:00:01.805Z,1014.9020136790501
2022-12-27T14:15:01.443Z,1014.7471032567602
2022-12-27T14:30:02.066Z,1014.5367369570281
2022-12-27T14:45:01.706Z,1014.5401722408035
2022-12-27T15:00:01.319Z,1014.4338955712035
2022-12-27T15:15:01.956Z,1014.3850730617559
2022-12-27T15:30:01.647Z,1014.2388071564608
2022-12-27T15:45:01.331Z,1014.2539851643612
2022-12-27T16:00:01.968Z,1014.008237191152
2022-12-27T16:15:01.669Z,1013.9445769571611
2022-12-27T16:30:01.370Z,1013.9830669007866
2022-12-27T16:45:02.110Z,1013.8582501997454
2022-12-27T17:00:02.062Z,1013.8719490406236
2022-12-27T17:15:01.795Z,1013.782318902415
2022-12-27T17:30:02.500Z,1013.5941251963616
2022-12-27T17:45:02.261Z,1013.6218518800472
2022-12-27T18:00:01.955Z,1013.4753334534543
2022-12-27T18:15:01.621Z,1013.2636399862928
2022-12-27T18:30:02.318Z,1012.9272880776423
2022-12-27T18:45:01.972Z,1012.8816247100233
2022-12-27T19:00:01.676Z,1012.7285422816299
2022-12-27T19:15:02.346Z,1012.5062852765027
2022-12-27T19:30:02.026Z,1012.3535374047731
2022-12-27T19:45:01.689Z,1012.2386617467283
2022-12-27T20:00:06.813Z,1012.0350873202042
2022-12-27T20:15:02.014Z,1011.9211343713629
2022-12-27T20:30:01.710Z,1011.9066765161189
2022-12-27T20:45:01.370Z,1011.7406481414268
2022-12-27T21:00:02.062Z,1011.5849338648337
2022-12-27T21:15:01.774Z,1011.5468663666569
2022-12-27T21:30:01.457Z,1011.4265731539817
2022-12-27T21:45:02.127Z,1011.2646662966234
2022-12-27T22:00:01.786Z,1011.3154348254582
2022-12-27T22:15:01.539Z,1011.2713547216848
2022-12-27T22:30:02.211Z,1010.7811288062491
2022-12-27T22:45:01.870Z,1010.547350635488
2022-12-27T23:00:01.541Z,1010.3311767905357
2022-12-27T23:15:02.221Z,1010.011706027311
2022-12-27T23:30:01.892Z,1009.7166788174316
2022-12-27T23:45:01.567Z,1009.1866662420621
